createdAt,value
2019-05-03T00:02:08.497Z,8.83
2019-05-03T00:04:36.867Z,8.97
2019-05-03T00:07:05.220Z,8.47
2019-05-03T00:09:33.587Z,8.00
2019-05-03T00:12:01.958Z,9.20
2019-05-03T00:14:32.379Z,7.63
2019-05-03T00:17:02.170Z,9.43
2019-05-03T00:19:32.594Z,8.63
2019-05-03T00:22:02.068Z,8.23
2019-05-03T00:24:32.133Z,8.23
2019-05-03T00:27:01.913Z,9.17
2019-05-03T00:29:32.369Z,7.80
2019-05-03T00:32:01.963Z,9.13
2019-05-03T00:34:32.357Z,8.87
2019-05-03T00:37:01.800Z,9.57
2019-05-03T00:39:32.339Z,9.37
2019-05-03T00:42:00.256Z,9.57
2019-05-03T00:44:28.607Z,9.53
2019-05-03T00:46:56.975Z,9.00
2019-05-03T00:49:25.246Z,8.80
2019-05-03T00:51:53.546Z,8.73
2019-05-03T00:54:22.316Z,9.37
2019-05-03T00:56:52.248Z,8.40
2019-05-03T00:59:22.164Z,8.07
2019-05-03T01:01:52.181Z,8.40
2019-05-03T01:04:22.247Z,9.20
2019-05-03T01:06:52.563Z,8.70
2019-05-03T01:09:22.469Z,9.50
2019-05-03T01:11:52.465Z,8.63
2019-05-03T01:14:22.551Z,8.57
2019-05-03T01:16:52.209Z,8.80
2019-05-03T01:19:22.582Z,7.80
2019-05-03T01:21:51.530Z,7.10
2019-05-03T01:24:21.637Z,8.37
2019-05-03T01:26:50.142Z,7.53
2019-05-03T01:29:18.415Z,7.53
2019-05-03T01:31:46.723Z,8.47
2019-05-03T01:34:14.993Z,7.37
2019-05-03T01:36:43.297Z,7.00
2019-05-03T01:39:12.786Z,6.93
2019-05-03T01:41:41.708Z,6.93
2019-05-03T01:44:10.069Z,5.83
2019-05-03T01:46:38.375Z,6.83
2019-05-03T01:49:06.678Z,6.53
2019-05-03T01:51:34.953Z,6.90
2019-05-03T01:54:03.414Z,7.37
2019-05-03T01:56:31.748Z,6.07
2019-05-03T01:59:01.778Z,7.60
2019-05-03T02:01:31.604Z,7.27
2019-05-03T02:03:59.962Z,6.87
2019-05-03T02:06:28.234Z,7.90
2019-05-03T02:08:56.595Z,8.40
2019-05-03T02:11:24.872Z,8.50
2019-05-03T02:13:53.175Z,8.23
2019-05-03T02:16:21.897Z,9.23
2019-05-03T02:18:51.849Z,9.87
2019-05-03T02:21:21.627Z,8.93
2019-05-03T02:23:51.919Z,9.93
2019-05-03T02:26:20.102Z,9.70
2019-05-03T02:28:48.389Z,9.70
2019-05-03T02:31:16.732Z,9.57
2019-05-03T02:33:45.043Z,10.00
2019-05-03T02:36:13.866Z,9.60
2019-05-03T02:38:43.084Z,9.47
2019-05-03T02:41:13.472Z,10.20
2019-05-03T02:43:41.726Z,10.37
2019-05-03T02:46:10.029Z,9.87
2019-05-03T02:48:38.409Z,11.23
2019-05-03T02:51:06.841Z,10.10
2019-05-03T02:53:36.017Z,11.40
2019-05-03T02:56:15.179Z,11.43
2019-05-03T02:58:35.858Z,10.40
2019-05-03T03:01:06.589Z,11.33
2019-05-03T03:03:36.263Z,11.40
2019-05-03T03:06:06.702Z,10.83
2019-05-03T03:08:36.871Z,10.90
2019-05-03T03:11:07.001Z,11.57
2019-05-03T03:13:36.831Z,12.70
2019-05-03T03:16:06.938Z,11.80
2019-05-03T03:21:10.252Z,11.17
2019-05-03T03:23:40.069Z,12.03
2019-05-03T03:26:09.558Z,12.27
2019-05-03T03:28:39.372Z,12.03
2019-05-03T03:31:21.238Z,10.73
2019-05-03T03:33:49.575Z,11.53
2019-05-03T03:36:50.446Z,12.33
2019-05-03T03:38:48.201Z,11.00
2019-05-03T03:41:17.171Z,11.63
2019-05-03T03:43:47.045Z,11.33
2019-05-03T03:46:15.954Z,10.97
2019-05-03T03:48:46.078Z,11.83
2019-05-03T03:51:15.561Z,11.07
2019-05-03T03:53:46.507Z,11.17
2019-05-03T03:56:15.989Z,10.93
2019-05-03T03:58:46.457Z,12.33
2019-05-03T04:01:15.694Z,12.23
2019-05-03T04:03:45.977Z,11.17
2019-05-03T04:06:15.379Z,11.43
2019-05-03T04:08:45.330Z,10.90
2019-05-03T04:11:15.574Z,11.60
2019-05-03T04:13:45.157Z,13.53
2019-05-03T04:16:20.329Z,12.90
2019-05-03T04:18:45.522Z,13.35
2019-05-03T04:21:16.194Z,11.37
2019-05-03T04:23:45.834Z,12.00
2019-05-03T04:26:16.233Z,12.03
2019-05-03T04:28:45.340Z,13.18
2019-05-03T04:31:15.272Z,11.47
2019-05-03T04:33:45.049Z,10.67
2019-05-03T04:36:15.765Z,9.53
2019-05-03T04:38:45.337Z,10.83
2019-05-03T04:41:15.794Z,12.58
2019-05-03T04:43:45.839Z,11.40
2019-05-03T04:46:16.198Z,10.37
2019-05-03T04:48:44.901Z,9.80
2019-05-03T04:51:13.327Z,11.43
2019-05-03T04:53:41.642Z,10.90
2019-05-03T04:56:09.935Z,11.20
2019-05-03T04:58:38.335Z,10.63
2019-05-03T05:01:06.720Z,9.60
2019-05-03T05:03:36.094Z,10.03
2019-05-03T05:06:06.282Z,10.33
2019-05-03T05:08:35.848Z,9.50
2019-05-03T05:11:05.811Z,9.67
2019-05-03T05:13:35.621Z,8.30
2019-05-03T05:16:05.882Z,9.03
2019-05-03T05:18:37.596Z,10.50
2019-05-03T05:21:05.962Z,8.85
2019-05-03T05:23:35.386Z,7.00
2019-05-03T05:26:05.553Z,7.30
2019-05-03T05:28:36.282Z,6.77
2019-05-03T05:31:04.807Z,5.90
2019-05-03T05:33:35.233Z,5.37
2019-05-03T05:36:04.827Z,5.47
2019-05-03T05:38:34.644Z,6.12
2019-05-03T05:41:05.151Z,5.13
2019-05-03T05:43:33.101Z,5.60
2019-05-03T05:46:01.394Z,4.43
2019-05-03T05:48:29.655Z,4.90
2019-05-03T05:50:57.957Z,4.63
2019-05-03T05:53:26.236Z,5.03
2019-05-03T05:55:54.960Z,3.83
2019-05-03T05:58:25.741Z,2.97
2019-05-03T06:00:55.150Z,2.90
2019-05-03T06:03:25.144Z,3.30
2019-05-03T06:05:54.890Z,2.80
2019-05-03T06:08:25.007Z,2.73
2019-05-03T06:10:55.263Z,2.67
2019-05-03T06:13:23.247Z,2.97
2019-05-03T06:15:51.643Z,3.23
2019-05-03T06:18:19.927Z,2.60
2019-05-03T06:20:48.300Z,3.02
2019-05-03T06:23:16.570Z,2.30
2019-05-03T06:25:45.376Z,2.90
2019-05-03T06:28:18.381Z,2.73
2019-05-03T06:30:45.413Z,2.33
2019-05-03T06:33:14.406Z,2.30
2019-05-03T06:35:44.473Z,2.40
2019-05-03T06:38:12.891Z,1.97
2019-05-03T06:40:41.160Z,2.85
2019-05-03T06:43:12.771Z,2.10
2019-05-03T06:45:41.118Z,2.17
2019-05-03T06:48:09.424Z,2.40
2019-05-03T06:50:37.705Z,2.72
2019-05-03T06:53:12.657Z,2.10
2019-05-03T06:55:40.041Z,2.40
2019-05-03T06:58:06.073Z,2.27
2019-05-03T07:00:35.130Z,2.12
2019-05-03T07:03:04.908Z,2.03
2019-05-03T07:05:35.355Z,1.53
2019-05-03T07:08:05.155Z,2.40
2019-05-03T07:10:35.250Z,2.00
2019-05-03T07:13:04.986Z,2.10
2019-05-03T07:15:35.116Z,1.87
2019-05-03T07:18:05.577Z,2.47
2019-05-03T07:20:35.325Z,2.37
2019-05-03T07:23:04.365Z,2.47
2019-05-03T07:25:34.353Z,2.30
2019-05-03T07:28:04.413Z,2.20
2019-05-03T07:30:35.155Z,1.97
2019-05-03T07:33:04.741Z,2.17
2019-05-03T07:35:32.806Z,2.47
2019-05-03T07:38:01.131Z,2.20
2019-05-03T07:40:29.626Z,2.40
2019-05-03T07:42:57.905Z,2.30
2019-05-03T07:45:26.253Z,2.17
2019-05-03T07:47:55.794Z,2.57
2019-05-03T07:50:25.780Z,2.00
2019-05-03T07:52:55.575Z,2.75
2019-05-03T07:55:24.979Z,3.10
2019-05-03T07:57:55.172Z,2.65
2019-05-03T08:00:25.195Z,2.50
2019-05-03T08:02:54.999Z,2.30
2019-05-03T08:05:24.678Z,3.00
2019-05-03T08:07:55.244Z,2.57
2019-05-03T08:10:25.447Z,2.17
2019-05-03T08:12:54.418Z,1.80
2019-05-03T08:15:24.533Z,1.70
2019-05-03T08:17:52.919Z,1.90
2019-05-03T08:20:21.222Z,2.37
2019-05-03T08:22:49.525Z,2.50
2019-05-03T08:25:17.900Z,2.50
2019-05-03T08:27:46.153Z,2.30
2019-05-03T08:30:14.788Z,2.40
2019-05-03T08:32:44.544Z,2.03
2019-05-03T08:35:15.101Z,2.80
2019-05-03T08:37:45.166Z,2.40
2019-05-03T08:40:13.112Z,2.73
2019-05-03T08:42:41.382Z,2.50
2019-05-03T08:45:09.749Z,2.53
2019-05-03T08:47:38.027Z,2.58
2019-05-03T08:50:06.402Z,2.92
2019-05-03T08:52:34.838Z,2.90
2019-05-03T08:55:05.234Z,3.10
2019-05-03T08:57:35.451Z,2.58
2019-05-03T09:00:05.371Z,3.30
2019-05-03T09:02:34.613Z,3.08
2019-05-03T09:05:05.164Z,2.92
2019-05-03T09:07:35.433Z,2.75
2019-05-03T09:10:05.418Z,2.63
2019-05-03T09:12:34.348Z,2.97
2019-05-03T09:15:04.780Z,3.50
2019-05-03T09:17:35.185Z,3.37
2019-05-03T09:20:05.204Z,3.00
2019-05-03T09:22:34.845Z,3.10
2019-05-03T09:25:04.945Z,2.70
2019-05-03T09:27:34.433Z,2.77
2019-05-03T09:30:05.060Z,2.90
2019-05-03T09:32:34.997Z,2.87
2019-05-03T09:35:05.539Z,3.10
2019-05-03T09:37:35.421Z,2.73
2019-05-03T09:40:04.570Z,2.37
2019-05-03T09:42:35.113Z,2.47
2019-05-03T09:45:04.927Z,2.33
2019-05-03T09:47:35.264Z,2.33
2019-05-03T09:50:04.962Z,2.60
2019-05-03T09:52:35.511Z,2.80
2019-05-03T09:55:06.360Z,2.43
2019-05-03T09:57:34.773Z,2.50
2019-05-03T10:00:04.957Z,3.60
2019-05-03T10:02:35.219Z,2.43
2019-05-03T10:05:04.349Z,2.70
2019-05-03T10:07:34.957Z,2.90
2019-05-03T10:10:05.630Z,2.80
2019-05-03T10:12:33.706Z,2.83
2019-05-03T10:15:02.107Z,2.40
2019-05-03T10:17:30.482Z,2.80
2019-05-03T10:19:58.776Z,2.83
2019-05-03T10:22:27.347Z,3.00
2019-05-03T10:24:55.761Z,2.80
2019-05-03T10:27:25.153Z,2.20
2019-05-03T10:29:55.946Z,2.50
2019-05-03T10:32:25.385Z,2.47
2019-05-03T10:34:53.895Z,2.60
2019-05-03T10:37:24.384Z,2.40
2019-05-03T10:39:52.814Z,2.80
2019-05-03T10:42:22.092Z,2.27
2019-05-03T10:44:51.945Z,2.40
2019-05-03T10:47:20.292Z,2.70
2019-05-03T10:49:48.759Z,2.60
2019-05-03T10:52:17.144Z,2.40
2019-05-03T10:54:45.923Z,2.30
2019-05-03T10:57:15.916Z,2.77
2019-05-03T10:59:44.845Z,2.87
2019-05-03T11:02:13.315Z,2.75
2019-05-03T11:04:43.715Z,2.87
2019-05-03T11:07:11.894Z,2.87
2019-05-03T11:09:48.669Z,2.80
2019-05-03T11:12:10.216Z,2.80
2019-05-03T11:14:38.569Z,2.77
2019-05-03T11:17:06.921Z,2.40
2019-05-03T11:19:35.379Z,3.07
2019-05-03T11:22:05.453Z,3.15
2019-05-03T11:24:34.945Z,2.70
2019-05-03T11:27:03.470Z,2.77
2019-05-03T11:29:31.900Z,3.00
2019-05-03T11:32:00.409Z,2.83
2019-05-03T11:34:28.915Z,2.80
2019-05-03T11:36:57.456Z,3.00
2019-05-03T11:39:25.909Z,2.80
2019-05-03T11:41:54.435Z,3.07
2019-05-03T11:44:24.551Z,3.03
2019-05-03T11:46:55.076Z,2.63
2019-05-03T11:49:25.429Z,2.73
2019-05-03T11:51:55.662Z,2.87
2019-05-03T11:54:24.958Z,2.83
2019-05-03T11:57:05.074Z,2.70
2019-05-03T11:59:31.448Z,3.40
2019-05-03T12:02:00.321Z,2.70
2019-05-03T12:04:28.733Z,2.70
2019-05-03T12:06:57.150Z,2.57
2019-05-03T12:09:25.680Z,3.10
2019-05-03T12:11:55.307Z,2.67
2019-05-03T12:14:24.505Z,2.73
2019-05-03T12:17:13.127Z,3.17
2019-05-03T12:19:30.453Z,2.60
2019-05-03T12:21:54.062Z,2.83
2019-05-03T12:24:23.143Z,3.00
2019-05-03T12:26:52.428Z,2.43
2019-05-03T12:29:20.823Z,2.43
2019-05-03T12:31:50.531Z,2.50
2019-05-03T12:34:19.070Z,2.67
2019-05-03T12:36:47.628Z,3.10
2019-05-03T12:39:26.283Z,3.20
2019-05-03T12:41:48.140Z,3.20
2019-05-03T12:44:16.094Z,3.07
2019-05-03T12:46:45.001Z,3.00
2019-05-03T12:49:15.442Z,3.00
2019-05-03T12:51:45.304Z,2.70
2019-05-03T12:54:15.268Z,2.47
2019-05-03T12:56:45.334Z,3.15
2019-05-03T12:59:15.925Z,2.70
2019-05-03T13:01:45.295Z,2.57
2019-05-03T13:04:15.315Z,3.33
2019-05-03T13:06:45.369Z,3.20
2019-05-03T13:09:15.886Z,3.53
2019-05-03T13:11:52.939Z,3.20
2019-05-03T13:14:15.685Z,3.30
2019-05-03T13:16:44.523Z,3.43
2019-05-03T13:19:15.109Z,2.80
2019-05-03T13:21:45.039Z,2.83
2019-05-03T13:24:22.877Z,3.00
2019-05-03T13:26:45.725Z,2.77
2019-05-03T13:29:15.270Z,3.47
2019-05-03T13:31:57.472Z,2.87
2019-05-03T13:34:15.559Z,3.20
2019-05-03T13:36:45.677Z,3.70
2019-05-03T13:39:14.684Z,3.13
2019-05-03T13:41:45.341Z,3.20
2019-05-03T13:44:13.377Z,3.40
2019-05-03T13:46:41.791Z,3.00
2019-05-03T13:49:10.259Z,3.77
2019-05-03T13:51:38.842Z,3.67
2019-05-03T13:54:07.206Z,3.63
2019-05-03T13:56:35.580Z,3.97
2019-05-03T13:59:04.654Z,3.70
2019-05-03T14:01:34.199Z,3.63
2019-05-03T14:04:02.588Z,3.73
2019-05-03T14:06:33.554Z,3.60
2019-05-03T14:09:01.046Z,4.20
2019-05-03T14:11:29.450Z,3.70
2019-05-03T14:13:57.881Z,3.73
2019-05-03T14:16:26.271Z,4.03
2019-05-03T14:18:54.877Z,3.97
2019-05-03T14:21:24.502Z,3.70
2019-05-03T14:23:52.858Z,3.33
2019-05-03T14:26:21.221Z,3.20
2019-05-03T14:28:49.715Z,3.10
2019-05-03T14:31:18.088Z,3.40
2019-05-03T14:33:46.449Z,3.03
2019-05-03T14:36:16.142Z,4.07
2019-05-03T14:38:46.901Z,3.60
2019-05-03T14:41:15.078Z,3.73
2019-05-03T14:43:43.705Z,3.30
2019-05-03T14:46:12.092Z,3.17
2019-05-03T14:48:40.375Z,3.10
2019-05-03T14:51:08.671Z,3.17
2019-05-03T14:53:36.944Z,3.30
2019-05-03T14:56:07.849Z,3.70
2019-05-03T14:58:35.479Z,3.93
2019-05-03T15:01:04.799Z,3.50
2019-05-03T15:03:34.767Z,3.73
2019-05-03T15:06:05.181Z,4.00
2019-05-03T15:08:34.993Z,3.37
2019-05-03T15:11:05.291Z,4.20
2019-05-03T15:13:34.967Z,3.60
2019-05-03T15:16:05.230Z,3.30
2019-05-03T15:18:34.856Z,3.70
2019-05-03T15:21:05.347Z,3.40
2019-05-03T15:23:34.759Z,3.33
2019-05-03T15:26:05.183Z,3.30
2019-05-03T15:28:35.401Z,2.80
2019-05-03T15:31:04.548Z,3.63
2019-05-03T15:33:35.152Z,4.30
2019-05-03T15:36:04.740Z,3.80
2019-05-03T15:38:34.672Z,4.20
2019-05-03T15:41:05.190Z,3.93
2019-05-03T15:43:34.790Z,3.53
2019-05-03T15:46:05.184Z,3.77
2019-05-03T15:48:35.166Z,3.87
2019-05-03T15:51:04.666Z,3.93
2019-05-03T15:53:35.212Z,4.37
2019-05-03T15:56:05.244Z,4.17
2019-05-03T15:58:33.329Z,4.67
2019-05-03T16:01:01.898Z,4.77
2019-05-03T16:03:30.249Z,4.47
2019-05-03T16:05:58.600Z,4.53
2019-05-03T16:08:26.950Z,4.47
2019-05-03T16:10:55.310Z,4.63
2019-05-03T16:13:25.272Z,4.60
2019-05-03T16:15:55.205Z,4.30
2019-05-03T16:18:24.569Z,4.77
2019-05-03T16:20:54.567Z,4.93
2019-05-03T16:23:25.068Z,4.10
2019-05-03T16:25:54.372Z,4.27
2019-05-03T16:28:24.850Z,4.33
2019-05-03T16:30:55.280Z,4.57
2019-05-03T16:33:27.620Z,4.40
2019-05-03T16:35:54.915Z,5.13
2019-05-03T16:38:24.881Z,4.93
2019-05-03T16:40:54.549Z,4.90
2019-05-03T16:43:22.993Z,4.63
2019-05-03T16:45:51.371Z,4.40
2019-05-03T16:48:19.722Z,4.90
2019-05-03T16:50:48.183Z,5.40
2019-05-03T16:53:16.689Z,4.40
2019-05-03T16:55:45.057Z,4.23
2019-05-03T16:58:14.953Z,5.30
2019-05-03T17:00:44.710Z,4.63
2019-05-03T17:03:15.050Z,4.30
2019-05-03T17:05:45.102Z,4.23
2019-05-03T17:08:14.715Z,3.73
2019-05-03T17:10:43.221Z,4.40
2019-05-03T17:13:14.836Z,4.50
2019-05-03T17:15:47.306Z,4.40
2019-05-03T17:18:17.241Z,4.07
2019-05-03T17:20:45.793Z,4.30
2019-05-03T17:23:15.449Z,4.20
2019-05-03T17:25:44.505Z,4.53
2019-05-03T17:28:12.879Z,4.30
2019-05-03T17:30:41.196Z,4.20
2019-05-03T17:33:09.577Z,4.40
2019-05-03T17:35:38.995Z,3.80
2019-05-03T17:38:07.448Z,4.03
2019-05-03T17:40:35.796Z,4.30
2019-05-03T17:43:05.058Z,4.83
2019-05-03T17:45:35.092Z,5.20
2019-05-03T17:48:04.518Z,21.00
2019-05-03T17:50:34.754Z,9.27
2019-05-03T17:53:05.153Z,5.13
2019-05-03T17:55:35.112Z,4.87
2019-05-03T17:58:04.539Z,4.67
2019-05-03T18:00:34.841Z,4.33
2019-05-03T18:03:04.725Z,6.93
2019-05-03T18:05:34.462Z,4.40
2019-05-03T18:08:03.021Z,4.83
2019-05-03T18:10:31.371Z,4.87
2019-05-03T18:12:59.667Z,4.63
2019-05-03T18:15:28.041Z,4.87
2019-05-03T18:17:56.442Z,4.90
2019-05-03T18:20:25.570Z,5.20
2019-05-03T18:22:54.650Z,5.40
2019-05-03T18:25:24.876Z,5.10
2019-05-03T18:27:55.167Z,6.20
2019-05-03T18:30:23.686Z,5.17
2019-05-03T18:32:52.166Z,5.97
2019-05-03T18:35:20.607Z,6.23
2019-05-03T18:37:48.995Z,6.07
2019-05-03T18:40:17.449Z,5.57
2019-05-03T18:42:46.154Z,5.43
2019-05-03T18:45:14.984Z,6.10
2019-05-03T18:47:45.020Z,6.03
2019-05-03T18:50:13.524Z,5.97
2019-05-03T18:52:41.894Z,6.20
2019-05-03T18:55:10.292Z,6.00
2019-05-03T18:57:38.661Z,6.13
2019-05-03T19:00:08.167Z,5.90
2019-05-03T19:02:37.368Z,6.77
2019-05-03T19:05:06.273Z,6.53
2019-05-03T19:07:34.796Z,6.50
2019-05-03T19:10:05.065Z,6.40
2019-05-03T19:12:35.569Z,6.20
2019-05-03T19:15:05.292Z,6.20
2019-05-03T19:17:35.516Z,7.77
2019-05-03T19:20:05.080Z,7.33
2019-05-03T19:22:34.411Z,7.17
2019-05-03T19:25:03.973Z,7.00
2019-05-03T19:27:32.275Z,6.57
2019-05-03T19:30:00.590Z,7.12
2019-05-03T19:32:28.944Z,7.37
2019-05-03T19:34:57.301Z,8.10
2019-05-03T19:37:25.954Z,7.73
2019-05-03T19:39:55.232Z,7.20
2019-05-03T19:42:26.943Z,7.30
2019-05-03T19:44:55.280Z,7.03
2019-05-03T19:47:25.227Z,7.60
2019-05-03T19:49:54.688Z,7.47
2019-05-03T19:52:25.284Z,7.07
2019-05-03T19:54:55.318Z,7.70
2019-05-03T19:57:24.392Z,6.77
2019-05-03T19:59:56.322Z,6.90
2019-05-03T20:02:24.488Z,6.30
2019-05-03T20:04:58.458Z,6.93
2019-05-03T20:07:25.056Z,6.03
2019-05-03T20:09:54.384Z,6.13
2019-05-03T20:12:24.539Z,6.23
2019-05-03T20:14:54.617Z,5.90
2019-05-03T20:17:23.132Z,6.50
2019-05-03T20:19:51.422Z,5.20
2019-05-03T20:22:19.800Z,5.50
2019-05-03T20:24:48.090Z,5.23
2019-05-03T20:27:16.563Z,4.73
2019-05-03T20:29:46.279Z,5.60
2019-05-03T20:32:15.911Z,5.77
2019-05-03T20:34:44.583Z,5.43
2019-05-03T20:37:14.712Z,5.83
2019-05-03T20:39:43.198Z,5.20
2019-05-03T20:42:11.585Z,5.63
2019-05-03T20:44:39.939Z,5.50
2019-05-03T20:47:08.333Z,5.17
2019-05-03T20:49:36.716Z,5.00
2019-05-03T20:52:05.163Z,5.40
2019-05-03T20:54:35.009Z,5.23
2019-05-03T20:57:05.299Z,5.93
2019-05-03T20:59:42.896Z,5.67
2019-05-03T21:02:05.880Z,5.30
2019-05-03T21:04:35.356Z,6.70
2019-05-03T21:07:04.976Z,7.00
2019-05-03T21:09:34.543Z,6.60
2019-05-03T21:12:04.480Z,7.37
2019-05-03T21:14:34.890Z,6.60
2019-05-03T21:17:04.576Z,6.30
2019-05-03T21:19:35.183Z,5.93
2019-05-03T21:22:03.164Z,5.83
2019-05-03T21:24:31.539Z,6.17
2019-05-03T21:26:59.833Z,5.80
2019-05-03T21:29:28.306Z,5.67
2019-05-03T21:31:56.630Z,5.90
2019-05-03T21:34:25.210Z,5.63
2019-05-03T21:36:54.523Z,6.80
2019-05-03T21:39:24.697Z,6.47
2019-05-03T21:41:53.196Z,7.17
2019-05-03T21:44:21.537Z,7.27
2019-05-03T21:46:49.832Z,6.70
2019-05-03T21:49:18.278Z,8.10
2019-05-03T21:51:46.651Z,7.70
2019-05-03T21:54:15.422Z,7.47
2019-05-03T21:56:44.751Z,8.40
2019-05-03T21:59:13.210Z,8.03
2019-05-03T22:01:41.570Z,9.40
2019-05-03T22:04:09.993Z,8.20
2019-05-03T22:06:38.421Z,9.43
2019-05-03T22:09:06.776Z,8.33
2019-05-03T22:11:35.115Z,8.57
2019-05-03T22:14:04.891Z,8.37
2019-05-03T22:16:34.537Z,8.27
2019-05-03T22:19:03.017Z,8.17
2019-05-03T22:21:31.354Z,9.77
2019-05-03T22:23:59.663Z,10.27
2019-05-03T22:26:28.049Z,9.77
2019-05-03T22:28:56.397Z,9.23
2019-05-03T22:31:26.772Z,11.57
2019-05-03T22:33:55.141Z,11.20
2019-05-03T22:36:24.558Z,12.53
2019-05-03T22:38:54.452Z,11.67
2019-05-03T22:41:22.903Z,14.27
2019-05-03T22:43:51.258Z,11.70
2019-05-03T22:46:19.568Z,12.73
2019-05-03T22:48:47.952Z,12.13
2019-05-03T22:51:19.120Z,11.93
2019-05-03T22:53:47.609Z,13.00
2019-05-03T22:56:16.088Z,14.93
2019-05-03T22:58:45.732Z,11.90
2019-05-03T23:01:16.430Z,14.40
2019-05-03T23:03:44.843Z,12.57
2019-05-03T23:06:20.402Z,11.90
2019-05-03T23:08:43.483Z,11.63
2019-05-03T23:11:11.835Z,10.87
2019-05-03T23:13:40.230Z,12.37
2019-05-03T23:16:08.679Z,10.83
2019-05-03T23:18:37.023Z,9.40
2019-05-03T23:21:05.387Z,10.10
2019-05-03T23:23:35.624Z,9.90
2019-05-03T23:26:04.504Z,10.10
2019-05-03T23:28:32.854Z,10.73
2019-05-03T23:31:01.208Z,11.37
2019-05-03T23:33:29.514Z,10.63
2019-05-03T23:35:59.157Z,11.03
2019-05-03T23:38:27.576Z,10.10
2019-05-03T23:40:55.931Z,10.20
2019-05-03T23:43:25.162Z,11.27
2019-05-03T23:45:54.581Z,11.23
2019-05-03T23:48:23.052Z,11.17
2019-05-03T23:50:51.356Z,12.40
2019-05-03T23:53:19.732Z,12.63
2019-05-03T23:55:48.046Z,12.13
2019-05-03T23:58:16.361Z,11.97
